Huvudsida
METAR-TAF:

METAR-TAF

Flygplatser :

Guangzhou Baiyun International Airport

Guangzhou, Kina

latitud: 23-10N, longitud: 113-20E, höjd: 8 m

Aktuellt väderrapport

Denna rapport gjordes för 15 minuter sedan, klockan 13:00 UTC
Vind 2 kt varierande vindriktning
Temperatur 26°C
Fuktighet 84%
Tryck 1009 hPa
Sikt 10 km eller mer
Inga moln under 1 500 m eller inga cumulonimbus

METAR: ZGGG 271300Z VRB01MPS CAVOK 26/23 Q1009 NOSIG

Tid: 21:15 (13:15 UTC)

Väderprognos

Denna rapport gjordes för 4 timmar och 7 minuter sedan, klockan 09:08 UTC
Prognos gäller från 27 kl. 12 UTC till 28 kl. 12 UTC
Vind 6 kt från sydväst
Sikt: 8000 m
Brutna moln på en höjd av 4000 ft
Temporärt
från 28 kl. 06 UTC till 28 kl. 12 UTC
Sikt: 2500 m
Spridda moln på en höjd av 1100 ft
Spridda moln på en höjd av 3000 ft, Cumulonimbus.
Brutna moln på en höjd av 3300 ft
åska, regn

TAF: ZGGG 270908Z 2712/2812 22003MPS 8000 BKN040 TX36/2807Z TN29/2722Z TEMPO 2806/2812 2500 TSRA SCT011 SCT030CB BKN033

Aktuella väderrapporter och prognoser från 4000 flygplatser (METAR- och TAF-rapporter).

De tillgängliga stationerna syns som gula och röda prickar på kartan.

För musen över prickarna för att se namnen på stationerna.

Klicka sedan för att få väderrapporter och prognoser.

För att ändra kartan: Klicka på de gröna knapparna med ett svart kors på för att zooma in; den gröna knappen med ett streck på för att zooma ut; eller på de gröna pilarna för angränsande kartor.


METAR-TAF: